createdAt,value
2022-12-11T00:00:28.901Z,51.5
2022-12-11T00:01:31.230Z,50.7
2022-12-11T00:02:33.046Z,51.2
2022-12-11T00:03:34.814Z,51.4
2022-12-11T00:04:35.976Z,51.6
2022-12-11T00:05:38.031Z,51.4
2022-12-11T00:06:39.898Z,51.4
2022-12-11T00:07:41.771Z,51.5
2022-12-11T00:08:42.813Z,51.4
2022-12-11T00:09:43.873Z,51.4
2022-12-11T00:10:45.950Z,51.5
2022-12-11T00:11:48.054Z,51.5
2022-12-11T00:12:49.832Z,51.3
2022-12-11T00:13:50.790Z,51.1
2022-12-11T00:14:51.904Z,51.1
2022-12-11T00:15:53.949Z,51.1
2022-12-11T00:16:56.047Z,51
2022-12-11T00:17:57.977Z,51.1
2022-12-11T00:19:00.019Z,51.3
2022-12-11T00:20:02.131Z,51.5
2022-12-11T00:21:03.910Z,51.3
2022-12-11T00:22:05.831Z,51.1
2022-12-11T00:23:08.036Z,51.1
2022-12-11T00:24:09.998Z,51.2
2022-12-11T00:25:12.261Z,51.1
2022-12-11T00:26:13.781Z,51.1
2022-12-11T00:27:14.906Z,50.7
2022-12-11T00:28:17.050Z,50.8
2022-12-11T00:29:18.872Z,51
2022-12-11T00:30:20.885Z,50.9
2022-12-11T00:31:23.097Z,50.8
2022-12-11T00:32:25.320Z,50.9
2022-12-11T00:33:26.936Z,50.8
2022-12-11T00:34:29.058Z,50.7
2022-12-11T00:35:31.350Z,50.2
2022-12-11T00:36:32.831Z,50.3
2022-12-11T00:37:33.937Z,50.2
2022-12-11T00:38:34.940Z,50.2
2022-12-11T00:39:37.105Z,50.1
2022-12-11T00:40:39.036Z,50.1
2022-12-11T00:41:40.911Z,50
2022-12-11T00:42:43.061Z,50.1
2022-12-11T00:43:45.010Z,50.2
2022-12-11T00:44:47.013Z,50.1
2022-12-11T00:45:49.040Z,50.2
2022-12-11T00:46:50.814Z,49.9
2022-12-11T00:47:51.874Z,50
2022-12-11T00:48:53.997Z,50
2022-12-11T00:49:56.051Z,50
2022-12-11T00:50:57.974Z,50
2022-12-11T00:52:00.131Z,50
2022-12-11T00:53:02.071Z,50
2022-12-11T00:54:03.877Z,49.9
2022-12-11T00:55:05.972Z,50
2022-12-11T00:56:07.992Z,50.1
2022-12-11T00:57:10.073Z,50
2022-12-11T00:58:12.040Z,49.9
2022-12-11T00:59:13.986Z,49.8
2022-12-11T01:00:15.926Z,49.8
2022-12-11T01:01:18.092Z,49.8
2022-12-11T01:02:19.850Z,49.8
2022-12-11T01:03:20.910Z,49.8
2022-12-11T01:04:22.978Z,49.8
2022-12-11T01:05:24.991Z,49.7
2022-12-11T01:06:26.965Z,49.5
2022-12-11T01:07:28.970Z,49.7
2022-12-11T01:08:35.418Z,49.8
2022-12-11T01:09:33.633Z,49.2
2022-12-11T01:10:35.049Z,49.6
2022-12-11T01:11:36.920Z,49.7
2022-12-11T01:12:38.920Z,49.5
2022-12-11T01:13:41.040Z,49.6
2022-12-11T01:14:43.030Z,49.6
2022-12-11T01:15:44.891Z,49.6
2022-12-11T01:16:46.954Z,49.7
2022-12-11T01:17:48.990Z,49.9
2022-12-11T01:18:50.810Z,50
2022-12-11T01:19:51.855Z,50.1
2022-12-11T01:20:53.024Z,50.1
2022-12-11T01:21:55.076Z,50.1
2022-12-11T01:22:56.971Z,50.2
2022-12-11T01:23:59.053Z,50.2
2022-12-11T01:25:00.910Z,50.1
2022-12-11T01:26:03.045Z,50
2022-12-11T01:27:04.890Z,49.9
2022-12-11T01:28:06.893Z,50
2022-12-11T01:29:09.035Z,49.9
2022-12-11T01:30:11.034Z,50.5
2022-12-11T01:31:12.994Z,50.7
2022-12-11T01:32:14.870Z,50.6
2022-12-11T01:33:15.871Z,50.6
2022-12-11T01:34:16.914Z,50.7
2022-12-11T01:35:19.111Z,50.7
2022-12-11T01:36:20.871Z,50.7
2022-12-11T01:37:21.910Z,50.7
2022-12-11T01:38:24.071Z,50.6
2022-12-11T01:39:25.960Z,50.6
2022-12-11T01:40:28.011Z,50.5
2022-12-11T01:41:29.877Z,50.2
2022-12-11T01:42:31.311Z,50.4
2022-12-11T01:43:32.912Z,50.3
2022-12-11T01:44:34.894Z,50.3
2022-12-11T01:45:35.872Z,50.4
2022-12-11T01:46:36.911Z,50.5
2022-12-11T01:47:39.051Z,50.6
2022-12-11T01:48:42.413Z,50.6
2022-12-11T01:49:43.114Z,50.5
2022-12-11T01:50:45.370Z,50.3
2022-12-11T01:51:46.911Z,50.2
2022-12-11T01:52:48.930Z,50.5
2022-12-11T01:53:50.911Z,50.4
2022-12-11T01:54:53.035Z,50.4
2022-12-11T01:55:54.991Z,50.4
2022-12-11T01:56:57.013Z,50.4
2022-12-11T01:57:59.051Z,50.8
2022-12-11T01:59:00.971Z,51.1
2022-12-11T02:00:02.979Z,51.2
2022-12-11T02:01:04.966Z,51.2
2022-12-11T02:02:06.993Z,51.1
2022-12-11T02:03:08.931Z,51
2022-12-11T02:07:11.355Z,51.2
2022-12-11T02:08:13.899Z,51.2
2022-12-11T02:09:15.116Z,51.3
2022-12-11T02:10:16.876Z,51.1
2022-12-11T02:11:17.916Z,50.9
2022-12-11T02:12:19.895Z,50.7
2022-12-11T02:13:20.916Z,51
2022-12-11T02:14:23.016Z,51.1
2022-12-11T02:15:25.062Z,51.1
2022-12-11T02:16:27.215Z,51.2
2022-12-11T02:17:29.005Z,51.2
2022-12-11T02:18:31.576Z,51.3
2022-12-11T02:19:32.895Z,51.2
2022-12-11T02:20:33.876Z,51.1
2022-12-11T02:21:34.918Z,50.9
2022-12-11T02:22:36.866Z,50.7
2022-12-11T02:23:37.996Z,50.6
2022-12-11T02:24:40.075Z,50.6
2022-12-11T02:25:42.102Z,50.5
2022-12-11T02:26:44.096Z,50.5
2022-12-11T02:27:46.115Z,50.6
2022-12-11T02:28:48.039Z,51.1
2022-12-11T02:29:49.895Z,51.5
2022-12-11T02:30:51.099Z,51.6
2022-12-11T02:31:53.163Z,50.8
2022-12-11T02:32:55.016Z,51.3
2022-12-11T02:33:57.056Z,51.4
2022-12-11T02:34:59.075Z,51.5
2022-12-11T02:36:00.896Z,51.8
2022-12-11T02:37:02.032Z,51.9
2022-12-11T02:38:03.905Z,52.1
2022-12-11T02:39:04.900Z,51.9
2022-12-11T02:40:06.016Z,51.8
2022-12-11T02:41:08.116Z,51.6
2022-12-11T02:42:10.135Z,51.6
2022-12-11T02:43:12.055Z,51.1
2022-12-11T02:44:13.976Z,51.1
2022-12-11T02:45:15.904Z,51.6
2022-12-11T02:46:16.935Z,51.8
2022-12-11T02:47:17.936Z,51.9
2022-12-11T02:48:19.878Z,52
2022-12-11T02:49:20.894Z,51.8
2022-12-11T02:50:21.985Z,51.8
2022-12-11T02:51:24.001Z,52
2022-12-11T02:52:26.036Z,52.2
2022-12-11T02:53:28.001Z,52.2
2022-12-11T02:54:29.957Z,51.9
2022-12-11T02:55:32.055Z,52.2
2022-12-11T02:56:34.074Z,52.3
2022-12-11T02:57:36.065Z,52.3
2022-12-11T02:58:38.096Z,52.1
2022-12-11T02:59:40.065Z,51.9
2022-12-11T03:00:42.106Z,51.6
2022-12-11T03:01:44.264Z,51
2022-12-11T03:02:46.124Z,51.4
2022-12-11T03:03:48.056Z,51.4
2022-12-11T03:04:49.917Z,51.2
2022-12-11T03:05:50.895Z,51.2
2022-12-11T03:06:51.957Z,51.1
2022-12-11T03:07:54.153Z,51.3
2022-12-11T03:08:56.117Z,51.6
2022-12-11T03:09:58.096Z,51.8
2022-12-11T03:10:59.977Z,51.9
2022-12-11T03:12:02.040Z,51.8
2022-12-11T03:13:04.056Z,51.8
2022-12-11T03:14:05.826Z,52.2
2022-12-11T03:15:06.996Z,52.4
2022-12-11T03:16:09.188Z,52.4
2022-12-11T03:17:11.040Z,52.4
2022-12-11T03:18:13.076Z,52.4
2022-12-11T03:19:15.095Z,53.3
2022-12-11T03:20:17.216Z,53.6
2022-12-11T03:21:19.016Z,53.7
2022-12-11T03:22:20.903Z,53.8
2022-12-11T03:23:21.855Z,54.1
2022-12-11T03:24:22.996Z,54.5
2022-12-11T03:25:25.196Z,54.4
2022-12-11T03:26:27.077Z,54.3
2022-12-11T03:27:29.064Z,54.1
2022-12-11T03:28:31.599Z,53.9
2022-12-11T03:29:32.897Z,54.2
2022-12-11T03:30:34.110Z,54.7
2022-12-11T03:31:35.892Z,54.8
2022-12-11T03:32:36.923Z,55.1
2022-12-11T03:33:37.876Z,55.4
2022-12-11T03:34:38.856Z,55.6
2022-12-11T03:35:39.975Z,55.7
2022-12-11T03:36:42.077Z,55.6
2022-12-11T03:37:44.162Z,55.5
2022-12-11T03:38:46.062Z,55.1
2022-12-11T03:39:48.076Z,55.2
2022-12-11T03:40:49.916Z,55.2
2022-12-11T03:41:50.981Z,55.1
2022-12-11T03:42:53.122Z,55.1
2022-12-11T03:43:55.092Z,55.5
2022-12-11T03:44:57.069Z,55.6
2022-12-11T03:45:59.100Z,55.3
2022-12-11T03:47:01.076Z,55.2
2022-12-11T03:48:03.063Z,55
2022-12-11T03:49:04.955Z,54.7
2022-12-11T03:50:06.999Z,54.5
2022-12-11T03:51:09.138Z,54.2
2022-12-11T03:52:11.035Z,54
2022-12-11T03:53:13.735Z,54
2022-12-11T03:54:15.076Z,53.9
2022-12-11T03:55:16.918Z,53.7
2022-12-11T03:56:17.803Z,53.9
2022-12-11T03:57:18.936Z,53.9
2022-12-11T03:58:19.916Z,53.7
2022-12-11T03:59:20.995Z,53.7
2022-12-11T04:00:23.098Z,53.7
2022-12-11T04:01:25.215Z,53.6
2022-12-11T04:02:27.076Z,53.4
2022-12-11T04:03:29.094Z,53.2
2022-12-11T04:04:31.231Z,53.1
2022-12-11T04:05:32.965Z,53.1
2022-12-11T04:06:34.924Z,52.9
2022-12-11T04:07:35.854Z,52.8
2022-12-11T04:08:36.985Z,52.6
2022-12-11T04:09:39.055Z,52.8
2022-12-11T04:10:41.136Z,52.8
2022-12-11T04:11:43.120Z,52.6
2022-12-11T04:12:45.076Z,52.4
2022-12-11T04:13:46.936Z,52.2
2022-12-11T04:14:47.915Z,52
2022-12-11T04:15:49.021Z,52.1
2022-12-11T04:16:51.138Z,52.5
2022-12-11T04:17:53.039Z,52.6
2022-12-11T04:18:55.039Z,52.7
2022-12-11T04:19:57.084Z,52.8
2022-12-11T04:20:58.936Z,52.7
2022-12-11T04:21:59.935Z,52.6
2022-12-11T04:23:00.844Z,52.5
2022-12-11T04:24:01.976Z,52.3
2022-12-11T04:25:04.085Z,52.2
2022-12-11T04:26:05.915Z,52.1
2022-12-11T04:27:06.956Z,51.8
2022-12-11T04:28:08.075Z,52
2022-12-11T04:29:10.081Z,52.2
2022-12-11T04:30:12.076Z,52.1
2022-12-11T04:31:14.053Z,52.1
2022-12-11T04:32:16.060Z,51.3
2022-12-11T04:33:17.955Z,51.8
2022-12-11T04:34:18.957Z,52.1
2022-12-11T04:35:19.917Z,52.3
2022-12-11T04:36:20.935Z,52.3
2022-12-11T04:37:21.943Z,52.1
2022-12-11T04:38:22.878Z,52
2022-12-11T04:39:23.916Z,52.3
2022-12-11T04:40:24.995Z,52.4
2022-12-11T04:41:26.879Z,52.3
2022-12-11T04:42:27.935Z,52.1
2022-12-11T04:43:28.880Z,52.2
2022-12-11T04:44:29.865Z,52
2022-12-11T04:45:30.916Z,51.9
2022-12-11T04:46:32.009Z,51.6
2022-12-11T04:47:32.928Z,52
2022-12-11T04:48:33.855Z,53.2
2022-12-11T04:49:35.022Z,54
2022-12-11T04:50:36.878Z,54.4
2022-12-11T04:51:38.012Z,54.6
2022-12-11T04:52:40.081Z,54.6
2022-12-11T04:53:42.095Z,54.5
2022-12-11T04:54:44.798Z,54.2
2022-12-11T04:55:46.129Z,53.7
2022-12-11T04:56:48.075Z,53.4
2022-12-11T04:57:49.962Z,53.1
2022-12-11T04:58:51.036Z,53.1
2022-12-11T04:59:53.060Z,53
2022-12-11T05:00:55.077Z,53.1
2022-12-11T05:01:57.265Z,53.3
2022-12-11T05:02:59.023Z,53.6
2022-12-11T05:04:00.987Z,53.7
2022-12-11T05:05:03.156Z,53.6
2022-12-11T05:06:05.115Z,53.3
2022-12-11T05:07:06.875Z,53
2022-12-11T05:08:08.054Z,53.1
2022-12-11T05:09:10.205Z,53
2022-12-11T05:10:12.140Z,52.9
2022-12-11T05:11:14.080Z,53.4
2022-12-11T05:12:16.100Z,53.5
2022-12-11T05:13:18.037Z,53.2
2022-12-11T05:14:20.158Z,53.6
2022-12-11T05:15:22.019Z,54
2022-12-11T05:16:24.166Z,54
2022-12-11T05:17:26.135Z,53.9
2022-12-11T05:18:28.113Z,53.5
2022-12-11T05:19:30.198Z,53.1
2022-12-11T05:20:31.924Z,53.2
2022-12-11T05:21:35.108Z,53.6
2022-12-11T05:22:33.967Z,54.2
2022-12-11T05:23:34.983Z,54.3
2022-12-11T05:24:35.915Z,54.1
2022-12-11T05:25:36.861Z,53.9
2022-12-11T05:26:40.586Z,53.6
2022-12-11T05:27:42.176Z,53.4
2022-12-11T05:28:44.215Z,53
2022-12-11T05:29:46.155Z,53.1
2022-12-11T05:30:48.176Z,53.4
2022-12-11T05:31:50.246Z,53.3
2022-12-11T05:32:51.957Z,53.3
2022-12-11T05:33:52.999Z,53.2
2022-12-11T05:34:55.136Z,53.1
2022-12-11T05:35:57.058Z,53.4
2022-12-11T05:36:59.016Z,53.2
2022-12-11T05:38:01.222Z,52.9
2022-12-11T05:39:03.155Z,52.6
2022-12-11T05:40:04.975Z,52.6
2022-12-11T05:41:05.921Z,52.5
2022-12-11T05:42:07.029Z,52.6
2022-12-11T05:43:09.175Z,52.4
2022-12-11T05:44:11.180Z,52.5
2022-12-11T05:45:13.512Z,52.3
2022-12-11T05:46:15.160Z,51.8
2022-12-11T05:47:17.097Z,51.8
2022-12-11T05:48:19.315Z,51.7
2022-12-11T05:49:23.546Z,51.5
2022-12-11T05:50:22.943Z,51.6
2022-12-11T05:51:24.118Z,51.3
2022-12-11T05:52:26.175Z,51.8
2022-12-11T05:53:28.135Z,52.1
2022-12-11T05:54:29.918Z,52.2
2022-12-11T05:55:31.035Z,52.1
2022-12-11T05:56:32.976Z,51.7
2022-12-11T05:57:33.998Z,51.5
2022-12-11T05:58:35.035Z,51.2
2022-12-11T05:59:37.024Z,51.2
2022-12-11T06:00:39.177Z,51.4
2022-12-11T06:01:41.321Z,51.5
2022-12-11T06:02:43.233Z,51.4
2022-12-11T06:03:45.035Z,51.2
2022-12-11T06:04:47.077Z,50.9
2022-12-11T06:05:49.196Z,50.6
2022-12-11T06:06:51.259Z,50.3
2022-12-11T06:07:53.121Z,50.4
2022-12-11T06:08:55.175Z,50.6
2022-12-11T06:09:57.257Z,50.5
2022-12-11T06:10:59.043Z,51
2022-12-11T06:12:01.084Z,51.7
2022-12-11T06:13:03.140Z,52.3
2022-12-11T06:14:05.100Z,52.7
2022-12-11T06:15:07.120Z,52.6
2022-12-11T06:16:09.004Z,52.4
2022-12-11T06:17:09.938Z,51.9
2022-12-11T06:18:11.116Z,52.1
2022-12-11T06:19:13.122Z,52.1
2022-12-11T06:20:15.155Z,52.7
2022-12-11T06:21:17.016Z,52.8
2022-12-11T06:22:18.018Z,52.7
2022-12-11T06:23:18.958Z,52.8
2022-12-11T06:24:20.197Z,52.6
2022-12-11T06:25:21.975Z,52.4
2022-12-11T06:26:22.979Z,52.2
2022-12-11T06:27:24.137Z,51.8
2022-12-11T06:28:26.057Z,51.3
2022-12-11T06:29:28.061Z,51.7
2022-12-11T06:30:37.450Z,51.8
2022-12-11T06:31:32.137Z,51.9
2022-12-11T06:32:34.005Z,51.6
2022-12-11T06:33:35.017Z,51.2
2022-12-11T06:34:36.076Z,50.8
2022-12-11T06:35:41.892Z,50.6
2022-12-11T06:36:40.224Z,50.5
2022-12-11T06:37:42.200Z,50.4
2022-12-11T06:38:44.171Z,50.4
2022-12-11T06:39:46.146Z,50.4
2022-12-11T06:40:48.136Z,50.3
2022-12-11T06:41:50.284Z,50.3
2022-12-11T06:42:52.116Z,50.5
2022-12-11T06:43:53.955Z,50.7
2022-12-11T06:44:55.256Z,50.9
2022-12-11T06:46:02.159Z,51.3
2022-12-11T06:46:59.096Z,51.5
2022-12-11T06:48:01.235Z,51.3
2022-12-11T06:49:03.156Z,51.2
2022-12-11T06:50:05.252Z,51.5
2022-12-11T06:51:07.037Z,51.8
2022-12-11T06:52:11.545Z,51.6
2022-12-11T06:53:10.227Z,52
2022-12-11T06:54:12.122Z,52.4
2022-12-11T06:55:14.329Z,52.6
2022-12-11T06:56:16.135Z,52.5
2022-12-11T06:57:18.217Z,52.1
2022-12-11T06:58:20.175Z,51.9
2022-12-11T06:59:22.055Z,51.8
2022-12-11T07:00:23.997Z,52
2022-12-11T07:01:25.086Z,51.8
2022-12-11T07:02:26.170Z,51.3
2022-12-11T07:03:28.156Z,51.6
2022-12-11T07:04:30.003Z,51.8
2022-12-11T07:05:31.076Z,52
2022-12-11T07:06:33.136Z,52.5
2022-12-11T07:07:35.258Z,52.4
2022-12-11T07:08:37.286Z,52.4
2022-12-11T07:09:39.164Z,52.1
2022-12-11T07:10:41.181Z,52
2022-12-11T07:11:43.258Z,51.8
2022-12-11T07:12:45.256Z,52.1
2022-12-11T07:13:47.016Z,52.1
2022-12-11T07:14:48.044Z,52
2022-12-11T07:15:50.015Z,51.7
2022-12-11T07:16:52.405Z,51.5
2022-12-11T07:17:54.235Z,51.2
2022-12-11T07:18:56.234Z,50.8
2022-12-11T07:19:58.196Z,51
2022-12-11T07:21:00.194Z,51
2022-12-11T07:22:02.076Z,51
2022-12-11T07:23:04.035Z,50.9
2022-12-11T07:24:05.122Z,50.6
2022-12-11T07:25:07.136Z,51
2022-12-11T07:26:09.161Z,51.3
2022-12-11T07:27:11.239Z,51.1
2022-12-11T07:28:16.583Z,51.2
2022-12-11T07:29:15.156Z,50.9
2022-12-11T07:30:17.354Z,50.4
2022-12-11T07:31:19.203Z,50.5
2022-12-11T07:32:21.183Z,50.7
2022-12-11T07:33:23.139Z,50.6
2022-12-11T07:34:25.255Z,50.3
2022-12-11T07:35:27.195Z,50.3
2022-12-11T07:36:29.100Z,50.2
2022-12-11T07:37:31.371Z,49.8
2022-12-11T07:38:33.469Z,49.3
2022-12-11T07:39:35.402Z,50.1
2022-12-11T07:40:37.655Z,50.4
2022-12-11T07:41:39.094Z,50.2
2022-12-11T07:42:45.911Z,50.2
2022-12-11T07:43:43.156Z,49.8
2022-12-11T07:44:45.155Z,49.6
2022-12-11T07:45:47.195Z,49.5
2022-12-11T07:46:49.151Z,49.1
2022-12-11T07:47:51.896Z,49.3
2022-12-11T07:48:53.209Z,49.9
2022-12-11T07:49:55.294Z,49.6
2022-12-11T07:50:57.195Z,49.5
2022-12-11T07:51:59.010Z,49.7
2022-12-11T07:53:01.756Z,48.8
2022-12-11T07:54:03.158Z,49.4
2022-12-11T07:55:05.147Z,49.6
2022-12-11T07:56:06.102Z,50.5
2022-12-11T07:57:12.427Z,50.8
2022-12-11T07:58:11.004Z,50
2022-12-11T07:59:12.138Z,50.3
2022-12-11T08:00:14.144Z,50.3
2022-12-11T08:01:16.125Z,50.1
2022-12-11T08:02:18.278Z,50.3
2022-12-11T08:03:20.907Z,50.4
2022-12-11T08:04:22.142Z,50.4
2022-12-11T08:05:24.195Z,50.3
2022-12-11T08:06:26.148Z,50.4
2022-12-11T08:07:29.572Z,50.2
2022-12-11T08:08:31.206Z,49.2
2022-12-11T08:09:33.217Z,49.2
2022-12-11T08:10:35.462Z,48.7
2022-12-11T08:11:37.223Z,48.4
2022-12-11T08:12:39.062Z,48.4
2022-12-11T08:13:41.255Z,48.6
2022-12-11T08:14:43.623Z,48.9
2022-12-11T08:15:45.224Z,49.3
2022-12-11T08:16:47.364Z,49.8
2022-12-11T08:17:49.417Z,49.2
2022-12-11T08:18:51.075Z,49.3
2022-12-11T08:19:53.497Z,49.3
2022-12-11T08:20:55.374Z,49.4
2022-12-11T08:21:58.016Z,49.5
2022-12-11T08:22:59.482Z,49.2
2022-12-11T08:24:01.617Z,49.3
2022-12-11T08:25:04.236Z,48.7
2022-12-11T08:26:06.354Z,49.1
2022-12-11T08:27:08.137Z,48.7
2022-12-11T08:28:10.215Z,48.7
2022-12-11T08:29:12.197Z,48.6
2022-12-11T08:30:14.235Z,48.5
2022-12-11T08:31:16.227Z,48.7
2022-12-11T08:32:18.017Z,48.5
2022-12-11T08:33:19.155Z,48.2
2022-12-11T08:34:21.060Z,48.2
2022-12-11T08:35:22.036Z,47.8
2022-12-11T08:36:23.135Z,48.3
2022-12-11T08:37:25.159Z,48.8
2022-12-11T08:38:27.223Z,49.5
2022-12-11T08:39:29.199Z,49.5
2022-12-11T08:40:31.155Z,50.9
2022-12-11T08:41:33.259Z,51.5
2022-12-11T08:42:35.955Z,51.2
2022-12-11T08:43:36.986Z,51.1
2022-12-11T08:44:38.043Z,50.6
2022-12-11T08:45:39.134Z,50.4
2022-12-11T08:46:41.556Z,50.4
2022-12-11T08:47:43.216Z,50.3
2022-12-11T08:48:45.318Z,50
2022-12-11T08:49:47.141Z,49.9
2022-12-11T08:50:49.216Z,49.9
2022-12-11T08:51:51.175Z,49.8
2022-12-11T08:52:53.243Z,49.5
2022-12-11T08:53:55.100Z,49.4
2022-12-11T08:54:57.196Z,49
2022-12-11T08:55:59.257Z,49.3
2022-12-11T08:57:01.175Z,49.6
2022-12-11T08:58:03.041Z,49.8
2022-12-11T08:59:04.145Z,49.2
2022-12-11T09:00:06.257Z,49.6
2022-12-11T09:01:08.087Z,49.3
2022-12-11T09:02:09.536Z,49.1
2022-12-11T09:03:13.017Z,48.7
2022-12-11T09:04:13.196Z,48.4
2022-12-11T09:05:15.256Z,48.6
2022-12-11T09:06:17.177Z,48.5
2022-12-11T09:07:19.160Z,48.2
2022-12-11T09:08:21.407Z,48.4
2022-12-11T09:09:23.235Z,48.3
2022-12-11T09:10:25.217Z,48.2
2022-12-11T09:11:27.220Z,47.9
2022-12-11T09:12:29.200Z,47.7
2022-12-11T09:13:31.087Z,47.7
2022-12-11T09:14:33.176Z,48
2022-12-11T09:15:35.092Z,48.1
2022-12-11T09:16:36.036Z,49.1
2022-12-11T09:17:37.095Z,49.5
2022-12-11T09:18:39.073Z,49.7
2022-12-11T09:19:40.992Z,49.9
2022-12-11T09:20:42.050Z,49.8
2022-12-11T09:21:43.036Z,49.8
2022-12-11T09:22:44.519Z,49.7
2022-12-11T09:23:46.075Z,48.9
2022-12-11T09:24:47.429Z,49.1
2022-12-11T09:25:49.037Z,49.2
2022-12-11T09:26:50.735Z,49.3
2022-12-11T09:27:52.039Z,49.4
2022-12-11T09:28:53.010Z,49.6
2022-12-11T09:29:54.283Z,49.5
2022-12-11T09:30:56.319Z,49.2
2022-12-11T09:31:59.216Z,49.7
2022-12-11T09:33:01.109Z,50.1
2022-12-11T09:34:03.245Z,49.7
2022-12-11T09:35:05.126Z,49.5
2022-12-11T09:36:07.143Z,49.2
2022-12-11T09:37:09.113Z,48.3
2022-12-11T09:38:11.211Z,47.9
2022-12-11T09:39:13.422Z,48.3
2022-12-11T09:40:16.415Z,48.2
2022-12-11T09:41:18.196Z,48
2022-12-11T09:42:20.130Z,48.1
2022-12-11T09:43:22.587Z,47.9
2022-12-11T09:44:24.694Z,47.7
2022-12-11T09:45:27.005Z,48.1
2022-12-11T09:46:32.204Z,48.2
2022-12-11T09:47:30.136Z,48.5
2022-12-11T09:48:32.250Z,49.2
2022-12-11T09:49:34.679Z,49.5
2022-12-11T09:50:36.210Z,49.7
2022-12-11T09:51:38.377Z,49.8
2022-12-11T09:52:40.275Z,50.4
2022-12-11T09:53:42.217Z,50.9
2022-12-11T09:54:44.475Z,51.3
2022-12-11T09:55:46.419Z,51.3
2022-12-11T09:56:48.356Z,51
2022-12-11T09:57:50.176Z,51.1
2022-12-11T09:58:52.820Z,51.3
2022-12-11T09:59:57.336Z,51.3
2022-12-11T10:00:56.778Z,51.6
2022-12-11T10:01:58.418Z,51.6
2022-12-11T10:03:00.231Z,51.6
2022-12-11T10:04:02.214Z,51.2
2022-12-11T10:05:05.110Z,51.1
2022-12-11T10:06:07.490Z,51.3
2022-12-11T10:07:09.216Z,51.7
2022-12-11T10:08:11.243Z,52
2022-12-11T10:09:13.215Z,52.2
2022-12-11T10:10:15.175Z,52.3
2022-12-11T10:11:17.656Z,51.8
2022-12-11T10:12:19.328Z,51.6
2022-12-11T10:13:21.804Z,51.4
2022-12-11T10:14:23.264Z,51.1
2022-12-11T10:15:25.417Z,50.6
2022-12-11T10:16:28.579Z,51
2022-12-11T10:17:30.115Z,51.3
2022-12-11T10:18:31.791Z,51
2022-12-11T10:19:33.308Z,51
2022-12-11T10:20:35.105Z,50.9
2022-12-11T10:21:36.058Z,51.3
2022-12-11T10:22:37.575Z,51.4
2022-12-11T10:23:39.096Z,51.2
2022-12-11T10:25:10.469Z,51.3
2022-12-11T10:25:42.151Z,51
2022-12-11T10:26:44.227Z,51
2022-12-11T10:27:46.300Z,51.1
2022-12-11T10:28:49.246Z,51.1
2022-12-11T10:29:51.284Z,50.9
2022-12-11T10:30:53.363Z,51.1
2022-12-11T10:31:55.202Z,51
2022-12-11T10:32:57.326Z,51.1
2022-12-11T10:33:59.337Z,51.1
2022-12-11T10:35:01.736Z,51.1
2022-12-11T10:36:03.503Z,51.6
2022-12-11T10:37:05.616Z,51.7
2022-12-11T10:38:07.204Z,51.3
2022-12-11T10:39:09.256Z,51.1
2022-12-11T10:40:11.216Z,50.6
2022-12-11T10:41:13.473Z,50.4
2022-12-11T10:42:15.617Z,50.4
2022-12-11T10:43:17.611Z,50.5
2022-12-11T10:44:19.356Z,50
2022-12-11T10:45:21.323Z,49.7
2022-12-11T10:46:23.348Z,49.6
2022-12-11T10:47:25.276Z,49.4
2022-12-11T10:48:27.198Z,49.7
2022-12-11T10:49:29.300Z,50.2
2022-12-11T10:50:31.275Z,50.1
2022-12-11T10:51:33.203Z,50.5
2022-12-11T10:52:35.257Z,50.2
2022-12-11T10:53:37.142Z,50.2
2022-12-11T10:54:39.276Z,50
2022-12-11T10:55:41.193Z,50.1
2022-12-11T10:56:43.215Z,49.5
2022-12-11T10:57:45.636Z,50
2022-12-11T10:58:47.381Z,49.6
2022-12-11T10:59:49.507Z,49.8
2022-12-11T11:00:51.439Z,50
2022-12-11T11:01:53.252Z,50.1
2022-12-11T11:02:56.633Z,49.9
2022-12-11T11:03:58.175Z,49.4
2022-12-11T11:05:00.360Z,48.9
2022-12-11T11:06:02.480Z,49.2
2022-12-11T11:07:04.776Z,49.6
2022-12-11T11:08:06.331Z,49.5
2022-12-11T11:09:08.241Z,49.4
2022-12-11T11:10:10.525Z,49.5
2022-12-11T11:11:12.287Z,49.7
2022-12-11T11:12:15.597Z,49.8
2022-12-11T11:13:17.315Z,49.7
2022-12-11T11:14:19.318Z,49.6
2022-12-11T11:15:21.295Z,49.5
2022-12-11T11:16:23.327Z,49
2022-12-11T11:17:26.273Z,48.8
2022-12-11T11:18:27.166Z,48.8
2022-12-11T11:19:29.348Z,48.9
2022-12-11T11:20:31.231Z,49.1
2022-12-11T11:21:33.155Z,49.2
2022-12-11T11:22:35.442Z,49.5
2022-12-11T11:23:41.138Z,49.8
2022-12-11T11:24:39.222Z,49.3
2022-12-11T11:25:41.235Z,49.9
2022-12-11T11:27:12.020Z,49.7
2022-12-11T11:27:45.431Z,50.1
2022-12-11T11:28:47.203Z,50.2
2022-12-11T11:29:53.039Z,50.1
2022-12-11T11:30:52.431Z,50.3
2022-12-11T11:31:54.410Z,50.5
2022-12-11T11:32:56.193Z,50.6
2022-12-11T11:33:58.398Z,50.1
2022-12-11T11:35:01.472Z,50.3
2022-12-11T11:36:03.145Z,50.2
2022-12-11T11:37:06.422Z,50.1
2022-12-11T11:38:08.627Z,49.8
2022-12-11T11:39:10.239Z,49.8
2022-12-11T11:40:12.561Z,50
2022-12-11T11:41:15.177Z,49.8
2022-12-11T11:42:16.256Z,50.4
2022-12-11T11:43:18.080Z,50.4
2022-12-11T11:44:19.189Z,50.1
2022-12-11T11:45:21.239Z,49.4
2022-12-11T11:46:23.388Z,49
2022-12-11T11:47:25.892Z,49
2022-12-11T11:48:27.256Z,48.9
2022-12-11T11:49:29.298Z,49.3
2022-12-11T11:50:31.076Z,49.8
2022-12-11T11:51:32.054Z,50.1
2022-12-11T11:52:33.421Z,50
2022-12-11T11:53:35.136Z,50
2022-12-11T11:54:37.698Z,50.2
2022-12-11T11:55:39.195Z,50
2022-12-11T11:56:41.198Z,49.9
2022-12-11T11:57:43.212Z,50.1
2022-12-11T11:58:45.130Z,50.9
2022-12-11T11:59:46.372Z,51.5
2022-12-11T12:00:48.083Z,51.9
2022-12-11T12:01:49.378Z,51.7
2022-12-11T12:02:51.432Z,51.9
2022-12-11T12:03:53.169Z,51.8
2022-12-11T12:04:56.222Z,51.6
2022-12-11T12:05:58.196Z,51.3
2022-12-11T12:07:00.246Z,50.8
2022-12-11T12:08:03.119Z,51
2022-12-11T12:09:03.999Z,50.9
2022-12-11T12:10:06.157Z,50.5
2022-12-11T12:11:08.184Z,49.7
2022-12-11T12:12:10.436Z,49.2
2022-12-11T12:13:30.397Z,49.2
2022-12-11T12:14:43.453Z,49
2022-12-11T12:15:16.244Z,48.5
2022-12-11T12:16:50.870Z,48.1
2022-12-11T12:17:20.169Z,47.4
2022-12-11T12:18:21.814Z,47.9
2022-12-11T12:19:23.619Z,48.6
2022-12-11T12:20:25.435Z,49.1
2022-12-11T12:21:27.088Z,49.4
2022-12-11T12:22:28.127Z,49.4
2022-12-11T12:23:34.985Z,49.3
2022-12-11T12:24:31.668Z,49.1
2022-12-11T12:25:33.556Z,48.5
2022-12-11T12:26:35.213Z,48
2022-12-11T12:27:51.912Z,47.4
2022-12-11T12:28:39.214Z,47.3
2022-12-11T12:29:41.396Z,47.1
2022-12-11T12:30:43.246Z,47.5
2022-12-11T12:31:45.268Z,48
2022-12-11T12:32:47.237Z,48.5
2022-12-11T12:33:49.271Z,48.6
2022-12-11T12:34:51.116Z,48.7
2022-12-11T12:35:52.133Z,48.6
2022-12-11T12:36:53.102Z,48.8
2022-12-11T12:37:54.356Z,49
2022-12-11T12:38:56.237Z,49.4
2022-12-11T12:39:58.297Z,49.8
2022-12-11T12:41:00.276Z,50.1
2022-12-11T12:42:07.184Z,50.4
2022-12-11T12:43:04.175Z,50.3
2022-12-11T12:44:05.681Z,50
2022-12-11T12:45:07.335Z,50.1
2022-12-11T12:46:09.381Z,50.1
2022-12-11T12:47:11.156Z,49.9
2022-12-11T12:48:12.218Z,49.9
2022-12-11T12:49:14.337Z,49.2
2022-12-11T12:50:16.896Z,48.3
2022-12-11T12:51:18.139Z,48.7
2022-12-11T12:52:19.128Z,49.2
2022-12-11T12:53:20.141Z,49.4
2022-12-11T12:54:21.235Z,49.7
2022-12-11T12:55:23.249Z,49.8
2022-12-11T12:56:25.178Z,49.6
2022-12-11T12:57:27.266Z,49.2
2022-12-11T12:58:30.376Z,49.1
2022-12-11T12:59:32.636Z,48.7
2022-12-11T13:00:34.290Z,48.7
2022-12-11T13:01:36.919Z,49.3
2022-12-11T13:02:38.256Z,49.3
2022-12-11T13:03:40.277Z,49.4
2022-12-11T13:04:57.093Z,49.8
2022-12-11T13:05:44.118Z,49.7
2022-12-11T13:06:45.219Z,49.4
2022-12-11T13:07:51.075Z,49.7
2022-12-11T13:08:49.339Z,49.5
2022-12-11T13:09:51.356Z,49.5
2022-12-11T13:10:53.229Z,49.5
2022-12-11T13:11:55.536Z,49.4
2022-12-11T13:12:57.116Z,48.9
2022-12-11T13:13:58.763Z,48.7
2022-12-11T13:15:00.113Z,48.7
2022-12-11T13:16:01.218Z,48.7
2022-12-11T13:17:02.337Z,48.4
2022-12-11T13:18:04.335Z,48.2
2022-12-11T13:19:06.245Z,47.8
2022-12-11T13:20:08.429Z,48.1
2022-12-11T13:21:10.376Z,47.8
2022-12-11T13:22:12.502Z,48.2
2022-12-11T13:23:14.244Z,48.1
2022-12-11T13:24:16.426Z,48.9
2022-12-11T13:25:18.377Z,49.3
2022-12-11T13:26:20.296Z,49.1
2022-12-11T13:27:22.296Z,49.7
2022-12-11T13:28:24.242Z,49.9
2022-12-11T13:29:26.335Z,49.7
2022-12-11T13:30:28.344Z,49.5
2022-12-11T13:31:30.787Z,49.2
2022-12-11T13:32:32.547Z,49.1
2022-12-11T13:33:34.366Z,49.2
2022-12-11T13:34:36.245Z,49.4
2022-12-11T13:35:38.300Z,49.6
2022-12-11T13:36:40.365Z,49.6
2022-12-11T13:37:42.782Z,49.8
2022-12-11T13:38:44.290Z,49.7
2022-12-11T13:39:46.675Z,49.7
2022-12-11T13:40:48.275Z,49.6
2022-12-11T13:41:50.430Z,49.6
2022-12-11T13:42:52.298Z,49.1
2022-12-11T13:43:54.099Z,48.8
2022-12-11T13:44:55.281Z,48.8
2022-12-11T13:45:57.361Z,48.2
2022-12-11T13:46:59.319Z,48.4
2022-12-11T13:48:01.319Z,48.8
2022-12-11T13:49:03.325Z,49.2
2022-12-11T13:50:05.360Z,49.3
2022-12-11T13:51:07.352Z,49.5